sensor_id;sensor_type;location;lat;lon;timestamp;P1;durP1;ratioP1;P2;durP2;ratioP2
44048;SDS011;29717;47.028;15.470;2022-09-21T00:01:53;4.33;;;2.00;;
44048;SDS011;29717;47.028;15.470;2022-09-21T00:04:19;2.87;;;1.63;;
44048;SDS011;29717;47.028;15.470;2022-09-21T00:06:46;2.57;;;1.60;;
44048;SDS011;29717;47.028;15.470;2022-09-21T00:09:13;3.17;;;1.83;;
44048;SDS011;29717;47.028;15.470;2022-09-21T00:11:40;1.83;;;1.50;;
44048;SDS011;29717;47.028;15.470;2022-09-21T00:14:09;4.00;;;1.73;;
44048;SDS011;29717;47.028;15.470;2022-09-21T00:16:37;1.80;;;1.60;;
44048;SDS011;29717;47.028;15.470;2022-09-21T00:19:04;3.13;;;1.23;;
44048;SDS011;29717;47.028;15.470;2022-09-21T00:21:32;2.10;;;1.80;;
44048;SDS011;29717;47.028;15.470;2022-09-21T00:23:59;2.97;;;1.70;;
44048;SDS011;29717;47.028;15.470;2022-09-21T00:26:26;3.83;;;2.20;;
44048;SDS011;29717;47.028;15.470;2022-09-21T00:28:53;2.63;;;2.10;;
44048;SDS011;29717;47.028;15.470;2022-09-21T00:31:22;1.73;;;1.40;;
44048;SDS011;29717;47.028;15.470;2022-09-21T00:33:49;2.47;;;1.90;;
44048;SDS011;29717;47.028;15.470;2022-09-21T00:36:17;2.47;;;1.50;;
44048;SDS011;29717;47.028;15.470;2022-09-21T00:38:44;1.70;;;1.60;;
44048;SDS011;29717;47.028;15.470;2022-09-21T00:41:12;2.77;;;1.63;;
44048;SDS011;29717;47.028;15.470;2022-09-21T00:43:41;1.43;;;1.30;;
44048;SDS011;29717;47.028;15.470;2022-09-21T00:46:11;1.93;;;1.40;;
44048;SDS011;29717;47.028;15.470;2022-09-21T00:48:41;2.13;;;1.40;;
44048;SDS011;29717;47.028;15.470;2022-09-21T00:51:10;2.10;;;1.50;;
44048;SDS011;29717;47.028;15.470;2022-09-21T00:53:37;1.73;;;1.40;;
44048;SDS011;29717;47.028;15.470;2022-09-21T00:56:04;1.47;;;1.30;;
44048;SDS011;29717;47.028;15.470;2022-09-21T00:58:33;1.60;;;1.33;;
44048;SDS011;29717;47.028;15.470;2022-09-21T01:01:02;1.57;;;1.37;;
44048;SDS011;29717;47.028;15.470;2022-09-21T01:03:29;3.00;;;1.57;;
44048;SDS011;29717;47.028;15.470;2022-09-21T01:05:58;4.00;;;1.37;;
44048;SDS011;29717;47.028;15.470;2022-09-21T01:08:25;2.73;;;1.80;;
44048;SDS011;29717;47.028;15.470;2022-09-21T01:10:58;3.13;;;1.30;;
44048;SDS011;29717;47.028;15.470;2022-09-21T01:13:30;2.50;;;1.73;;
44048;SDS011;29717;47.028;15.470;2022-09-21T01:16:00;7.23;;;1.90;;
44048;SDS011;29717;47.028;15.470;2022-09-21T01:18:33;5.27;;;1.70;;
44048;SDS011;29717;47.028;15.470;2022-09-21T01:26:28;2.73;;;1.50;;
44048;SDS011;29717;47.028;15.470;2022-09-21T01:29:04;1.40;;;1.20;;
44048;SDS011;29717;47.028;15.470;2022-09-21T01:31:33;3.20;;;1.90;;
44048;SDS011;29717;47.028;15.470;2022-09-21T01:34:03;2.03;;;1.40;;
44048;SDS011;29717;47.028;15.470;2022-09-21T01:36:32;3.30;;;1.90;;
44048;SDS011;29717;47.028;15.470;2022-09-21T01:39:02;2.63;;;1.40;;
44048;SDS011;29717;47.028;15.470;2022-09-21T01:41:31;2.73;;;1.23;;
44048;SDS011;29717;47.028;15.470;2022-09-21T01:44:01;2.53;;;1.67;;
44048;SDS011;29717;47.028;15.470;2022-09-21T01:46:34;3.23;;;1.63;;
44048;SDS011;29717;47.028;15.470;2022-09-21T01:49:03;2.03;;;1.67;;
44048;SDS011;29717;47.028;15.470;2022-09-21T01:51:33;2.03;;;1.50;;
44048;SDS011;29717;47.028;15.470;2022-09-21T01:54:01;1.53;;;1.43;;
44048;SDS011;29717;47.028;15.470;2022-09-21T01:56:31;1.97;;;1.60;;
44048;SDS011;29717;47.028;15.470;2022-09-21T01:59:02;2.23;;;1.70;;
44048;SDS011;29717;47.028;15.470;2022-09-21T02:01:33;4.93;;;1.83;;
44048;SDS011;29717;47.028;15.470;2022-09-21T02:04:04;3.07;;;1.60;;
44048;SDS011;29717;47.028;15.470;2022-09-21T02:06:34;2.17;;;1.60;;
44048;SDS011;29717;47.028;15.470;2022-09-21T02:09:02;3.20;;;1.53;;
44048;SDS011;29717;47.028;15.470;2022-09-21T02:11:29;1.87;;;1.40;;
44048;SDS011;29717;47.028;15.470;2022-09-21T02:13:56;1.90;;;1.57;;
44048;SDS011;29717;47.028;15.470;2022-09-21T02:16:29;2.07;;;1.50;;
44048;SDS011;29717;47.028;15.470;2022-09-21T02:19:01;2.63;;;1.50;;
44048;SDS011;29717;47.028;15.470;2022-09-21T02:21:39;2.27;;;1.60;;
44048;SDS011;29717;47.028;15.470;2022-09-21T02:24:12;2.70;;;1.50;;
44048;SDS011;29717;47.028;15.470;2022-09-21T02:26:42;3.37;;;1.50;;
44048;SDS011;29717;47.028;15.470;2022-09-21T02:29:11;2.60;;;1.50;;
44048;SDS011;29717;47.028;15.470;2022-09-21T02:31:43;2.93;;;1.40;;
44048;SDS011;29717;47.028;15.470;2022-09-21T02:34:15;1.90;;;1.40;;
44048;SDS011;29717;47.028;15.470;2022-09-21T02:36:45;2.07;;;1.40;;
44048;SDS011;29717;47.028;15.470;2022-09-21T02:39:14;3.00;;;1.30;;
44048;SDS011;29717;47.028;15.470;2022-09-21T02:41:45;1.30;;;1.20;;
44048;SDS011;29717;47.028;15.470;2022-09-21T02:44:16;1.40;;;1.30;;
44048;SDS011;29717;47.028;15.470;2022-09-21T02:46:46;3.37;;;1.77;;
44048;SDS011;29717;47.028;15.470;2022-09-21T02:49:15;1.63;;;1.33;;
44048;SDS011;29717;47.028;15.470;2022-09-21T02:51:46;2.77;;;1.40;;
44048;SDS011;29717;47.028;15.470;2022-09-21T02:54:15;4.50;;;1.90;;
44048;SDS011;29717;47.028;15.470;2022-09-21T02:56:43;6.77;;;4.07;;
44048;SDS011;29717;47.028;15.470;2022-09-21T02:59:11;5.03;;;2.40;;
44048;SDS011;29717;47.028;15.470;2022-09-21T03:01:39;4.70;;;1.97;;
44048;SDS011;29717;47.028;15.470;2022-09-21T03:04:07;2.90;;;1.30;;
44048;SDS011;29717;47.028;15.470;2022-09-21T03:06:35;2.27;;;1.40;;
44048;SDS011;29717;47.028;15.470;2022-09-21T03:09:03;1.80;;;1.47;;
44048;SDS011;29717;47.028;15.470;2022-09-21T03:11:30;2.50;;;1.20;;
44048;SDS011;29717;47.028;15.470;2022-09-21T03:13:58;1.40;;;1.30;;
44048;SDS011;29717;47.028;15.470;2022-09-21T03:16:25;2.73;;;1.47;;
44048;SDS011;29717;47.028;15.470;2022-09-21T03:18:54;2.87;;;1.50;;
44048;SDS011;29717;47.028;15.470;2022-09-21T03:21:20;1.97;;;1.40;;
44048;SDS011;29717;47.028;15.470;2022-09-21T03:23:47;3.33;;;1.60;;
44048;SDS011;29717;47.028;15.470;2022-09-21T03:26:15;3.73;;;1.60;;
44048;SDS011;29717;47.028;15.470;2022-09-21T03:28:46;3.93;;;1.40;;
44048;SDS011;29717;47.028;15.470;2022-09-21T03:31:13;3.63;;;1.80;;
44048;SDS011;29717;47.028;15.470;2022-09-21T03:33:40;1.53;;;1.40;;
44048;SDS011;29717;47.028;15.470;2022-09-21T03:36:07;2.30;;;1.47;;
44048;SDS011;29717;47.028;15.470;2022-09-21T03:38:34;3.37;;;1.60;;
44048;SDS011;29717;47.028;15.470;2022-09-21T03:41:02;3.50;;;1.40;;
44048;SDS011;29717;47.028;15.470;2022-09-21T03:43:30;3.33;;;1.50;;
44048;SDS011;29717;47.028;15.470;2022-09-21T03:45:58;1.93;;;1.47;;
44048;SDS011;29717;47.028;15.470;2022-09-21T03:48:25;3.50;;;1.50;;
44048;SDS011;29717;47.028;15.470;2022-09-21T03:50:52;1.90;;;1.70;;
44048;SDS011;29717;47.028;15.470;2022-09-21T03:53:19;2.63;;;1.97;;
44048;SDS011;29717;47.028;15.470;2022-09-21T03:55:45;2.20;;;1.90;;
44048;SDS011;29717;47.028;15.470;2022-09-21T03:58:12;3.30;;;1.90;;
44048;SDS011;29717;47.028;15.470;2022-09-21T04:00:44;4.13;;;2.10;;
44048;SDS011;29717;47.028;15.470;2022-09-21T04:03:11;4.43;;;1.80;;
44048;SDS011;29717;47.028;15.470;2022-09-21T04:05:37;3.90;;;2.40;;
44048;SDS011;29717;47.028;15.470;2022-09-21T04:08:04;2.20;;;2.00;;
44048;SDS011;29717;47.028;15.470;2022-09-21T04:10:31;4.13;;;2.00;;
44048;SDS011;29717;47.028;15.470;2022-09-21T04:12:59;2.70;;;1.90;;
44048;SDS011;29717;47.028;15.470;2022-09-21T04:15:27;4.20;;;2.50;;
44048;SDS011;29717;47.028;15.470;2022-09-21T04:17:57;5.13;;;2.40;;
44048;SDS011;29717;47.028;15.470;2022-09-21T04:20:24;2.57;;;2.20;;
44048;SDS011;29717;47.028;15.470;2022-09-21T04:22:50;8.17;;;2.70;;
44048;SDS011;29717;47.028;15.470;2022-09-21T04:25:20;5.73;;;2.00;;
44048;SDS011;29717;47.028;15.470;2022-09-21T04:27:47;3.57;;;2.10;;
44048;SDS011;29717;47.028;15.470;2022-09-21T04:30:14;4.37;;;2.10;;
44048;SDS011;29717;47.028;15.470;2022-09-21T04:32:41;7.33;;;2.13;;
44048;SDS011;29717;47.028;15.470;2022-09-21T04:35:10;6.43;;;2.10;;
44048;SDS011;29717;47.028;15.470;2022-09-21T04:37:36;7.13;;;2.33;;
44048;SDS011;29717;47.028;15.470;2022-09-21T04:40:04;3.87;;;1.80;;
44048;SDS011;29717;47.028;15.470;2022-09-21T04:42:31;6.33;;;1.70;;
44048;SDS011;29717;47.028;15.470;2022-09-21T04:44:57;3.20;;;1.80;;
44048;SDS011;29717;47.028;15.470;2022-09-21T04:47:24;6.20;;;2.30;;
44048;SDS011;29717;47.028;15.470;2022-09-21T04:49:51;3.30;;;2.50;;
44048;SDS011;29717;47.028;15.470;2022-09-21T04:52:20;5.67;;;2.03;;
44048;SDS011;29717;47.028;15.470;2022-09-21T04:54:46;12.37;;;2.97;;
44048;SDS011;29717;47.028;15.470;2022-09-21T04:57:14;7.10;;;2.10;;
44048;SDS011;29717;47.028;15.470;2022-09-21T04:59:41;4.47;;;2.00;;
44048;SDS011;29717;47.028;15.470;2022-09-21T05:02:07;9.37;;;2.40;;
44048;SDS011;29717;47.028;15.470;2022-09-21T05:04:34;7.40;;;2.60;;
44048;SDS011;29717;47.028;15.470;2022-09-21T05:07:01;3.50;;;2.20;;
44048;SDS011;29717;47.028;15.470;2022-09-21T05:09:29;3.90;;;2.00;;
44048;SDS011;29717;47.028;15.470;2022-09-21T05:12:13;5.03;;;2.03;;
44048;SDS011;29717;47.028;15.470;2022-09-21T05:14:39;6.37;;;2.37;;
44048;SDS011;29717;47.028;15.470;2022-09-21T05:17:08;4.53;;;2.10;;
44048;SDS011;29717;47.028;15.470;2022-09-21T05:19:35;8.33;;;2.43;;
44048;SDS011;29717;47.028;15.470;2022-09-21T05:22:01;2.33;;;2.00;;
44048;SDS011;29717;47.028;15.470;2022-09-21T05:24:30;10.50;;;3.03;;
44048;SDS011;29717;47.028;15.470;2022-09-21T05:26:56;5.07;;;2.33;;
44048;SDS011;29717;47.028;15.470;2022-09-21T05:29:23;4.83;;;2.50;;
44048;SDS011;29717;47.028;15.470;2022-09-21T05:31:51;4.53;;;2.37;;
44048;SDS011;29717;47.028;15.470;2022-09-21T05:34:23;4.73;;;2.77;;
44048;SDS011;29717;47.028;15.470;2022-09-21T05:36:53;11.37;;;3.10;;
44048;SDS011;29717;47.028;15.470;2022-09-21T05:39:21;7.70;;;2.37;;
44048;SDS011;29717;47.028;15.470;2022-09-21T05:41:50;10.97;;;2.87;;
44048;SDS011;29717;47.028;15.470;2022-09-21T05:44:18;6.20;;;2.40;;
44048;SDS011;29717;47.028;15.470;2022-09-21T05:46:47;5.37;;;2.27;;
44048;SDS011;29717;47.028;15.470;2022-09-21T05:49:16;7.07;;;2.00;;
44048;SDS011;29717;47.028;15.470;2022-09-21T05:51:47;3.87;;;2.13;;
44048;SDS011;29717;47.028;15.470;2022-09-21T05:54:17;6.27;;;2.37;;
44048;SDS011;29717;47.028;15.470;2022-09-21T05:56:47;3.20;;;2.20;;
44048;SDS011;29717;47.028;15.470;2022-09-21T05:59:27;6.43;;;2.43;;
44048;SDS011;29717;47.028;15.470;2022-09-21T06:02:00;6.37;;;2.37;;
44048;SDS011;29717;47.028;15.470;2022-09-21T06:04:31;4.17;;;2.20;;
44048;SDS011;29717;47.028;15.470;2022-09-21T06:06:58;7.00;;;2.23;;
44048;SDS011;29717;47.028;15.470;2022-09-21T06:09:25;6.30;;;2.10;;
44048;SDS011;29717;47.028;15.470;2022-09-21T06:11:52;4.68;;;2.10;;
44048;SDS011;29717;47.028;15.470;2022-09-21T06:14:19;9.55;;;2.97;;
44048;SDS011;29717;47.028;15.470;2022-09-21T06:16:51;2.53;;;2.03;;
44048;SDS011;29717;47.028;15.470;2022-09-21T06:19:18;4.97;;;2.38;;
44048;SDS011;29717;47.028;15.470;2022-09-21T06:21:45;8.40;;;3.88;;
44048;SDS011;29717;47.028;15.470;2022-09-21T06:24:12;4.80;;;2.78;;
44048;SDS011;29717;47.028;15.470;2022-09-21T06:26:39;6.55;;;2.67;;
44048;SDS011;29717;47.028;15.470;2022-09-21T06:29:06;9.32;;;3.10;;
44048;SDS011;29717;47.028;15.470;2022-09-21T06:31:32;10.35;;;2.92;;
44048;SDS011;29717;47.028;15.470;2022-09-21T06:34:01;3.92;;;2.47;;
44048;SDS011;29717;47.028;15.470;2022-09-21T06:36:28;6.72;;;2.55;;
44048;SDS011;29717;47.028;15.470;2022-09-21T06:38:55;4.80;;;2.30;;
44048;SDS011;29717;47.028;15.470;2022-09-21T06:41:22;5.82;;;3.05;;
44048;SDS011;29717;47.028;15.470;2022-09-21T06:43:52;3.38;;;2.35;;
44048;SDS011;29717;47.028;15.470;2022-09-21T06:46:18;3.83;;;2.30;;
44048;SDS011;29717;47.028;15.470;2022-09-21T06:48:45;3.92;;;2.90;;
44048;SDS011;29717;47.028;15.470;2022-09-21T06:51:14;7.05;;;2.88;;
44048;SDS011;29717;47.028;15.470;2022-09-21T06:53:41;5.40;;;2.78;;
44048;SDS011;29717;47.028;15.470;2022-09-21T06:56:08;6.18;;;3.42;;
44048;SDS011;29717;47.028;15.470;2022-09-21T06:58:35;15.75;;;3.17;;
44048;SDS011;29717;47.028;15.470;2022-09-21T07:01:06;7.78;;;3.08;;
44048;SDS011;29717;47.028;15.470;2022-09-21T07:03:33;8.40;;;3.40;;
44048;SDS011;29717;47.028;15.470;2022-09-21T07:06:00;9.07;;;3.47;;
44048;SDS011;29717;47.028;15.470;2022-09-21T07:08:28;11.13;;;3.17;;
44048;SDS011;29717;47.028;15.470;2022-09-21T07:10:56;9.02;;;3.35;;
44048;SDS011;29717;47.028;15.470;2022-09-21T07:13:23;8.00;;;3.40;;
44048;SDS011;29717;47.028;15.470;2022-09-21T07:15:50;6.15;;;3.13;;
44048;SDS011;29717;47.028;15.470;2022-09-21T07:18:17;5.10;;;2.92;;
44048;SDS011;29717;47.028;15.470;2022-09-21T07:20:43;5.38;;;2.95;;
44048;SDS011;29717;47.028;15.470;2022-09-21T07:23:13;7.13;;;3.20;;
44048;SDS011;29717;47.028;15.470;2022-09-21T07:25:42;4.80;;;2.85;;
44048;SDS011;29717;47.028;15.470;2022-09-21T07:28:09;11.07;;;3.47;;
44048;SDS011;29717;47.028;15.470;2022-09-21T07:30:36;10.27;;;3.70;;
44048;SDS011;29717;47.028;15.470;2022-09-21T07:33:03;6.68;;;3.63;;
44048;SDS011;29717;47.028;15.470;2022-09-21T07:35:30;9.27;;;3.25;;
44048;SDS011;29717;47.028;15.470;2022-09-21T07:37:57;6.28;;;2.75;;
44048;SDS011;29717;47.028;15.470;2022-09-21T07:40:24;8.65;;;2.90;;
44048;SDS011;29717;47.028;15.470;2022-09-21T07:42:55;5.70;;;2.75;;
44048;SDS011;29717;47.028;15.470;2022-09-21T07:45:22;2.95;;;1.33;;
44048;SDS011;29717;47.028;15.470;2022-09-21T07:47:49;1.63;;;1.20;;
44048;SDS011;29717;47.028;15.470;2022-09-21T07:50:18;1.98;;;0.80;;
44048;SDS011;29717;47.028;15.470;2022-09-21T07:52:45;1.27;;;0.70;;
44048;SDS011;29717;47.028;15.470;2022-09-21T07:55:12;0.70;;;0.70;;
44048;SDS011;29717;47.028;15.470;2022-09-21T07:57:39;1.98;;;0.68;;
44048;SDS011;29717;47.028;15.470;2022-09-21T08:00:24;2.22;;;0.68;;
44048;SDS011;29717;47.028;15.470;2022-09-21T08:02:53;0.80;;;0.60;;
44048;SDS011;29717;47.028;15.470;2022-09-21T08:05:20;2.15;;;0.70;;
44048;SDS011;29717;47.028;15.470;2022-09-21T08:07:46;0.60;;;0.60;;
44048;SDS011;29717;47.028;15.470;2022-09-21T08:10:13;0.98;;;0.60;;
44048;SDS011;29717;47.028;15.470;2022-09-21T08:12:40;0.60;;;0.50;;
44048;SDS011;29717;47.028;15.470;2022-09-21T08:15:08;1.10;;;0.77;;
44048;SDS011;29717;47.028;15.470;2022-09-21T08:17:38;0.85;;;0.60;;
44048;SDS011;29717;47.028;15.470;2022-09-21T08:20:05;0.90;;;0.60;;
44048;SDS011;29717;47.028;15.470;2022-09-21T08:22:38;3.72;;;0.70;;
44048;SDS011;29717;47.028;15.470;2022-09-21T08:25:05;1.40;;;0.80;;
44048;SDS011;29717;47.028;15.470;2022-09-21T08:27:32;0.55;;;0.47;;
44048;SDS011;29717;47.028;15.470;2022-09-21T08:29:58;0.68;;;0.47;;
44048;SDS011;29717;47.028;15.470;2022-09-21T08:32:27;0.60;;;0.60;;
44048;SDS011;29717;47.028;15.470;2022-09-21T08:34:56;1.10;;;0.60;;
44048;SDS011;29717;47.028;15.470;2022-09-21T08:37:23;1.23;;;0.60;;
44048;SDS011;29717;47.028;15.470;2022-09-21T08:39:49;1.00;;;0.63;;
44048;SDS011;29717;47.028;15.470;2022-09-21T08:42:31;1.55;;;0.68;;
44048;SDS011;29717;47.028;15.470;2022-09-21T08:45:02;1.27;;;0.63;;
44048;SDS011;29717;47.028;15.470;2022-09-21T08:47:34;1.27;;;0.70;;
44048;SDS011;29717;47.028;15.470;2022-09-21T08:50:04;0.77;;;0.50;;
44048;SDS011;29717;47.028;15.470;2022-09-21T08:52:32;0.82;;;0.60;;
44048;SDS011;29717;47.028;15.470;2022-09-21T08:55:00;0.40;;;0.40;;
44048;SDS011;29717;47.028;15.470;2022-09-21T08:57:28;0.40;;;0.40;;
44048;SDS011;29717;47.028;15.470;2022-09-21T08:59:55;0.73;;;0.52;;
44048;SDS011;29717;47.028;15.470;2022-09-21T09:02:29;1.75;;;0.40;;
44048;SDS011;29717;47.028;15.470;2022-09-21T09:04:58;3.03;;;0.60;;
44048;SDS011;29717;47.028;15.470;2022-09-21T09:07:30;0.70;;;0.50;;
44048;SDS011;29717;47.028;15.470;2022-09-21T09:10:00;1.75;;;0.55;;
44048;SDS011;29717;47.028;15.470;2022-09-21T09:12:32;0.40;;;0.40;;
44048;SDS011;29717;47.028;15.470;2022-09-21T09:15:06;5.82;;;0.60;;
44048;SDS011;29717;47.028;15.470;2022-09-21T09:17:38;0.85;;;0.60;;
44048;SDS011;29717;47.028;15.470;2022-09-21T09:20:10;0.43;;;0.40;;
44048;SDS011;29717;47.028;15.470;2022-09-21T09:22:41;0.50;;;0.47;;
44048;SDS011;29717;47.028;15.470;2022-09-21T09:25:13;0.60;;;0.60;;
44048;SDS011;29717;47.028;15.470;2022-09-21T09:27:42;1.98;;;0.70;;
44048;SDS011;29717;47.028;15.470;2022-09-21T09:30:12;0.30;;;0.30;;
44048;SDS011;29717;47.028;15.470;2022-09-21T09:32:42;0.55;;;0.32;;
44048;SDS011;29717;47.028;15.470;2022-09-21T09:35:15;0.50;;;0.50;;
44048;SDS011;29717;47.028;15.470;2022-09-21T09:37:45;0.47;;;0.47;;
44048;SDS011;29717;47.028;15.470;2022-09-21T09:40:12;1.60;;;0.50;;
44048;SDS011;29717;47.028;15.470;2022-09-21T09:42:50;1.55;;;0.43;;
44048;SDS011;29717;47.028;15.470;2022-09-21T09:45:23;0.60;;;0.50;;
44048;SDS011;29717;47.028;15.470;2022-09-21T09:48:04;0.88;;;0.60;;
44048;SDS011;29717;47.028;15.470;2022-09-21T09:50:33;0.52;;;0.50;;
44048;SDS011;29717;47.028;15.470;2022-09-21T09:53:03;3.00;;;0.70;;
44048;SDS011;29717;47.028;15.470;2022-09-21T09:55:34;0.95;;;0.52;;
44048;SDS011;29717;47.028;15.470;2022-09-21T09:58:02;2.28;;;0.60;;
44048;SDS011;29717;47.028;15.470;2022-09-21T10:00:29;0.88;;;0.32;;
44048;SDS011;29717;47.028;15.470;2022-09-21T10:02:56;0.90;;;0.57;;
44048;SDS011;29717;47.028;15.470;2022-09-21T10:05:24;0.70;;;0.70;;
44048;SDS011;29717;47.028;15.470;2022-09-21T10:07:57;0.50;;;0.50;;
44048;SDS011;29717;47.028;15.470;2022-09-21T10:10:33;0.50;;;0.50;;
44048;SDS011;29717;47.028;15.470;2022-09-21T10:13:09;0.70;;;0.50;;
44048;SDS011;29717;47.028;15.470;2022-09-21T10:15:44;0.45;;;0.38;;
44048;SDS011;29717;47.028;15.470;2022-09-21T10:18:18;1.17;;;0.88;;
44048;SDS011;29717;47.028;15.470;2022-09-21T10:20:52;0.32;;;0.32;;
44048;SDS011;29717;47.028;15.470;2022-09-21T10:23:19;0.93;;;0.40;;
44048;SDS011;29717;47.028;15.470;2022-09-21T10:25:53;0.95;;;0.50;;
44048;SDS011;29717;47.028;15.470;2022-09-21T10:28:19;1.42;;;0.50;;
44048;SDS011;29717;47.028;15.470;2022-09-21T10:30:48;0.80;;;0.50;;
44048;SDS011;29717;47.028;15.470;2022-09-21T10:33:17;0.38;;;0.38;;
44048;SDS011;29717;47.028;15.470;2022-09-21T10:35:47;0.68;;;0.50;;
44048;SDS011;29717;47.028;15.470;2022-09-21T10:38:15;0.30;;;0.30;;
44048;SDS011;29717;47.028;15.470;2022-09-21T10:43:40;2.05;;;0.50;;
44048;SDS011;29717;47.028;15.470;2022-09-21T10:46:08;0.50;;;0.50;;
44048;SDS011;29717;47.028;15.470;2022-09-21T10:48:35;0.50;;;0.50;;
44048;SDS011;29717;47.028;15.470;2022-09-21T10:51:02;0.85;;;0.65;;
44048;SDS011;29717;47.028;15.470;2022-09-21T10:53:30;1.48;;;0.60;;
44048;SDS011;29717;47.028;15.470;2022-09-21T10:55:57;1.75;;;0.50;;
44048;SDS011;29717;47.028;15.470;2022-09-21T10:58:25;1.15;;;0.70;;
44048;SDS011;29717;47.028;15.470;2022-09-21T11:00:53;0.60;;;0.50;;
44048;SDS011;29717;47.028;15.470;2022-09-21T11:03:29;0.70;;;0.50;;
44048;SDS011;29717;47.028;15.470;2022-09-21T11:06:00;0.82;;;0.50;;
44048;SDS011;29717;47.028;15.470;2022-09-21T11:08:29;0.88;;;0.60;;
44048;SDS011;29717;47.028;15.470;2022-09-21T11:11:02;0.50;;;0.50;;
44048;SDS011;29717;47.028;15.470;2022-09-21T11:13:32;1.73;;;0.60;;
44048;SDS011;29717;47.028;15.470;2022-09-21T11:16:02;0.80;;;0.70;;
44048;SDS011;29717;47.028;15.470;2022-09-21T11:18:35;0.57;;;0.50;;
44048;SDS011;29717;47.028;15.470;2022-09-21T11:21:08;0.40;;;0.40;;
44048;SDS011;29717;47.028;15.470;2022-09-21T11:23:40;0.52;;;0.40;;
44048;SDS011;29717;47.028;15.470;2022-09-21T11:26:11;0.50;;;0.50;;
44048;SDS011;29717;47.028;15.470;2022-09-21T11:28:41;3.15;;;0.70;;
44048;SDS011;29717;47.028;15.470;2022-09-21T11:34:13;2.33;;;0.60;;
44048;SDS011;29717;47.028;15.470;2022-09-21T11:36:45;0.40;;;0.40;;
44048;SDS011;29717;47.028;15.470;2022-09-21T11:39:20;0.95;;;0.47;;
44048;SDS011;29717;47.028;15.470;2022-09-21T11:41:57;0.90;;;0.82;;
44048;SDS011;29717;47.028;15.470;2022-09-21T11:44:30;0.65;;;0.60;;
44048;SDS011;29717;47.028;15.470;2022-09-21T11:47:01;0.63;;;0.63;;
44048;SDS011;29717;47.028;15.470;2022-09-21T11:49:49;0.70;;;0.60;;
44048;SDS011;29717;47.028;15.470;2022-09-21T11:52:20;0.85;;;0.52;;
44048;SDS011;29717;47.028;15.470;2022-09-21T11:57:41;1.25;;;0.50;;
44048;SDS011;29717;47.028;15.470;2022-09-21T12:00:11;1.23;;;0.60;;
44048;SDS011;29717;47.028;15.470;2022-09-21T12:02:44;0.40;;;0.40;;
44048;SDS011;29717;47.028;15.470;2022-09-21T12:05:21;0.55;;;0.50;;
44048;SDS011;29717;47.028;15.470;2022-09-21T12:07:55;1.00;;;0.70;;
44048;SDS011;29717;47.028;15.470;2022-09-21T12:10:35;2.15;;;0.50;;
44048;SDS011;29717;47.028;15.470;2022-09-21T12:13:05;0.57;;;0.50;;
44048;SDS011;29717;47.028;15.470;2022-09-21T12:15:36;2.70;;;0.50;;
44048;SDS011;29717;47.028;15.470;2022-09-21T12:18:05;0.65;;;0.40;;
44048;SDS011;29717;47.028;15.470;2022-09-21T12:20:36;0.60;;;0.40;;
44048;SDS011;29717;47.028;15.470;2022-09-21T12:23:09;0.52;;;0.52;;
44048;SDS011;29717;47.028;15.470;2022-09-21T12:25:39;1.70;;;0.70;;
44048;SDS011;29717;47.028;15.470;2022-09-21T12:28:09;0.82;;;0.50;;
44048;SDS011;29717;47.028;15.470;2022-09-21T12:30:38;0.45;;;0.43;;
44048;SDS011;29717;47.028;15.470;2022-09-21T12:33:09;0.80;;;0.70;;
44048;SDS011;29717;47.028;15.470;2022-09-21T12:35:42;0.60;;;0.60;;
44048;SDS011;29717;47.028;15.470;2022-09-21T12:38:11;1.02;;;0.70;;
44048;SDS011;29717;47.028;15.470;2022-09-21T12:40:41;0.88;;;0.50;;
44048;SDS011;29717;47.028;15.470;2022-09-21T12:43:15;3.67;;;0.80;;
44048;SDS011;29717;47.028;15.470;2022-09-21T12:45:47;0.45;;;0.43;;
44048;SDS011;29717;47.028;15.470;2022-09-21T12:48:19;1.02;;;0.50;;
44048;SDS011;29717;47.028;15.470;2022-09-21T12:50:52;0.70;;;0.40;;
44048;SDS011;29717;47.028;15.470;2022-09-21T12:53:21;1.45;;;0.80;;
44048;SDS011;29717;47.028;15.470;2022-09-21T12:55:52;0.82;;;0.60;;
44048;SDS011;29717;47.028;15.470;2022-09-21T12:58:23;0.82;;;0.40;;
44048;SDS011;29717;47.028;15.470;2022-09-21T13:00:56;1.92;;;0.60;;
44048;SDS011;29717;47.028;15.470;2022-09-21T13:03:27;0.55;;;0.40;;
44048;SDS011;29717;47.028;15.470;2022-09-21T13:06:05;0.40;;;0.38;;
44048;SDS011;29717;47.028;15.470;2022-09-21T13:08:36;0.40;;;0.38;;
44048;SDS011;29717;47.028;15.470;2022-09-21T13:11:04;0.43;;;0.40;;
44048;SDS011;29717;47.028;15.470;2022-09-21T13:13:32;0.75;;;0.40;;
44048;SDS011;29717;47.028;15.470;2022-09-21T13:15:59;0.20;;;0.20;;
44048;SDS011;29717;47.028;15.470;2022-09-21T13:18:29;0.35;;;0.35;;
44048;SDS011;29717;47.028;15.470;2022-09-21T13:20:58;0.50;;;0.40;;
44048;SDS011;29717;47.028;15.470;2022-09-21T13:23:29;0.43;;;0.40;;
44048;SDS011;29717;47.028;15.470;2022-09-21T13:26:03;0.30;;;0.30;;
44048;SDS011;29717;47.028;15.470;2022-09-21T13:28:58;0.77;;;0.50;;
44048;SDS011;29717;47.028;15.470;2022-09-21T13:31:29;0.30;;;0.30;;
44048;SDS011;29717;47.028;15.470;2022-09-21T13:34:04;0.45;;;0.45;;
44048;SDS011;29717;47.028;15.470;2022-09-21T13:36:33;0.75;;;0.30;;
44048;SDS011;29717;47.028;15.470;2022-09-21T13:41:47;3.38;;;0.80;;
44048;SDS011;29717;47.028;15.470;2022-09-21T13:44:19;0.40;;;0.35;;
44048;SDS011;29717;47.028;15.470;2022-09-21T13:46:56;1.17;;;0.50;;
44048;SDS011;29717;47.028;15.470;2022-09-21T13:49:29;0.60;;;0.43;;
44048;SDS011;29717;47.028;15.470;2022-09-21T13:51:59;2.60;;;0.50;;
44048;SDS011;29717;47.028;15.470;2022-09-21T13:54:27;0.40;;;0.30;;
44048;SDS011;29717;47.028;15.470;2022-09-21T13:56:59;0.40;;;0.40;;
44048;SDS011;29717;47.028;15.470;2022-09-21T13:59:29;0.30;;;0.30;;
44048;SDS011;29717;47.028;15.470;2022-09-21T14:01:57;2.42;;;0.30;;
44048;SDS011;29717;47.028;15.470;2022-09-21T14:04:24;0.32;;;0.32;;
44048;SDS011;29717;47.028;15.470;2022-09-21T14:06:52;3.22;;;0.40;;
44048;SDS011;29717;47.028;15.470;2022-09-21T14:09:21;1.75;;;0.40;;
44048;SDS011;29717;47.028;15.470;2022-09-21T14:11:52;0.88;;;0.60;;
44048;SDS011;29717;47.028;15.470;2022-09-21T14:14:22;1.42;;;0.57;;
44048;SDS011;29717;47.028;15.470;2022-09-21T14:16:50;1.17;;;0.50;;
44048;SDS011;29717;47.028;15.470;2022-09-21T14:27:35;10.57;;;2.65;;
44048;SDS011;29717;47.028;15.470;2022-09-21T14:30:15;20.48;;;5.78;;
44048;SDS011;29717;47.028;15.470;2022-09-21T14:32:43;1.00;;;0.50;;
44048;SDS011;29717;47.028;15.470;2022-09-21T14:35:12;1.35;;;0.50;;
44048;SDS011;29717;47.028;15.470;2022-09-21T14:37:41;1.02;;;0.40;;
44048;SDS011;29717;47.028;15.470;2022-09-21T14:40:15;0.43;;;0.43;;
44048;SDS011;29717;47.028;15.470;2022-09-21T14:42:43;2.20;;;0.85;;
44048;SDS011;29717;47.028;15.470;2022-09-21T14:45:13;0.80;;;0.80;;
44048;SDS011;29717;47.028;15.470;2022-09-21T14:47:53;0.65;;;0.60;;
44048;SDS011;29717;47.028;15.470;2022-09-21T14:50:29;1.45;;;0.60;;
44048;SDS011;29717;47.028;15.470;2022-09-21T14:53:19;1.50;;;0.70;;
44048;SDS011;29717;47.028;15.470;2022-09-21T14:58:41;0.68;;;0.60;;
44048;SDS011;29717;47.028;15.470;2022-09-21T15:01:24;3.80;;;1.65;;
44048;SDS011;29717;47.028;15.470;2022-09-21T15:04:02;3.55;;;1.98;;
44048;SDS011;29717;47.028;15.470;2022-09-21T15:06:35;4.28;;;2.47;;
44048;SDS011;29717;47.028;15.470;2022-09-21T15:09:27;0.70;;;0.60;;
44048;SDS011;29717;47.028;15.470;2022-09-21T15:12:14;0.75;;;0.75;;
44048;SDS011;29717;47.028;15.470;2022-09-21T15:14:43;0.43;;;0.43;;
44048;SDS011;29717;47.028;15.470;2022-09-21T15:17:21;0.63;;;0.50;;